sensor_id;sensor_type;location;lat;lon;timestamp;temperature;humidity
39021;DHT22;25188;51.958;5.842;2024-03-25T00:02:07;5.10;99.90
39021;DHT22;25188;51.958;5.842;2024-03-25T00:04:33;5.10;99.90
39021;DHT22;25188;51.958;5.842;2024-03-25T00:06:59;5.00;99.90
39021;DHT22;25188;51.958;5.842;2024-03-25T00:09:24;5.00;99.90
39021;DHT22;25188;51.958;5.842;2024-03-25T00:11:50;5.00;99.90
39021;DHT22;25188;51.958;5.842;2024-03-25T00:14:20;5.00;99.90
39021;DHT22;25188;51.958;5.842;2024-03-25T00:16:46;5.10;99.90
39021;DHT22;25188;51.958;5.842;2024-03-25T00:19:12;5.00;99.90
39021;DHT22;25188;51.958;5.842;2024-03-25T00:21:37;5.00;99.90
39021;DHT22;25188;51.958;5.842;2024-03-25T00:24:03;5.00;99.90
39021;DHT22;25188;51.958;5.842;2024-03-25T00:26:29;4.90;99.90
39021;DHT22;25188;51.958;5.842;2024-03-25T00:28:55;4.90;99.90
39021;DHT22;25188;51.958;5.842;2024-03-25T00:31:20;4.90;99.90
39021;DHT22;25188;51.958;5.842;2024-03-25T00:33:46;4.90;99.90
39021;DHT22;25188;51.958;5.842;2024-03-25T00:36:12;4.90;99.90
39021;DHT22;25188;51.958;5.842;2024-03-25T00:38:38;4.80;99.90
39021;DHT22;25188;51.958;5.842;2024-03-25T00:41:04;4.90;99.90
39021;DHT22;25188;51.958;5.842;2024-03-25T00:43:29;4.80;99.90
39021;DHT22;25188;51.958;5.842;2024-03-25T00:45:55;4.80;99.90
39021;DHT22;25188;51.958;5.842;2024-03-25T00:48:22;4.80;99.90
39021;DHT22;25188;51.958;5.842;2024-03-25T00:50:48;4.80;99.90
39021;DHT22;25188;51.958;5.842;2024-03-25T00:53:14;4.80;99.90
39021;DHT22;25188;51.958;5.842;2024-03-25T00:55:40;4.70;99.90
39021;DHT22;25188;51.958;5.842;2024-03-25T00:58:05;4.80;99.90
39021;DHT22;25188;51.958;5.842;2024-03-25T01:00:31;4.70;99.90
39021;DHT22;25188;51.958;5.842;2024-03-25T01:02:57;4.70;99.90
39021;DHT22;25188;51.958;5.842;2024-03-25T01:05:22;4.70;99.90
39021;DHT22;25188;51.958;5.842;2024-03-25T01:07:48;4.70;99.90
39021;DHT22;25188;51.958;5.842;2024-03-25T01:10:14;4.70;99.90
39021;DHT22;25188;51.958;5.842;2024-03-25T01:12:41;4.60;99.90
39021;DHT22;25188;51.958;5.842;2024-03-25T01:15:07;4.70;99.90
39021;DHT22;25188;51.958;5.842;2024-03-25T01:17:36;4.60;99.90
39021;DHT22;25188;51.958;5.842;2024-03-25T01:20:01;4.60;99.90
39021;DHT22;25188;51.958;5.842;2024-03-25T01:22:27;4.60;99.90
39021;DHT22;25188;51.958;5.842;2024-03-25T01:24:53;4.60;99.90
39021;DHT22;25188;51.958;5.842;2024-03-25T01:27:18;4.60;99.90
39021;DHT22;25188;51.958;5.842;2024-03-25T01:29:44;4.50;99.90
39021;DHT22;25188;51.958;5.842;2024-03-25T01:32:10;4.50;99.90
39021;DHT22;25188;51.958;5.842;2024-03-25T01:34:35;4.50;99.90
39021;DHT22;25188;51.958;5.842;2024-03-25T01:37:01;4.50;99.90
39021;DHT22;25188;51.958;5.842;2024-03-25T01:39:27;4.50;99.90
39021;DHT22;25188;51.958;5.842;2024-03-25T01:41:52;4.50;99.90
39021;DHT22;25188;51.958;5.842;2024-03-25T01:44:18;4.50;99.90
39021;DHT22;25188;51.958;5.842;2024-03-25T01:46:43;4.40;99.90
39021;DHT22;25188;51.958;5.842;2024-03-25T01:49:10;4.40;99.90
39021;DHT22;25188;51.958;5.842;2024-03-25T01:51:37;4.40;99.90
39021;DHT22;25188;51.958;5.842;2024-03-25T01:54:04;4.40;99.90
39021;DHT22;25188;51.958;5.842;2024-03-25T01:56:33;4.40;99.90
39021;DHT22;25188;51.958;5.842;2024-03-25T01:58:59;4.40;99.90
39021;DHT22;25188;51.958;5.842;2024-03-25T02:01:26;4.40;99.90
39021;DHT22;25188;51.958;5.842;2024-03-25T02:03:53;4.40;99.90
39021;DHT22;25188;51.958;5.842;2024-03-25T02:06:20;4.40;99.90
39021;DHT22;25188;51.958;5.842;2024-03-25T02:08:48;4.40;99.90
39021;DHT22;25188;51.958;5.842;2024-03-25T02:11:14;4.40;99.90
39021;DHT22;25188;51.958;5.842;2024-03-25T02:13:40;4.40;99.90
39021;DHT22;25188;51.958;5.842;2024-03-25T02:16:07;4.30;99.90
39021;DHT22;25188;51.958;5.842;2024-03-25T02:18:32;4.30;99.90
39021;DHT22;25188;51.958;5.842;2024-03-25T02:20:59;4.40;99.90
39021;DHT22;25188;51.958;5.842;2024-03-25T02:23:25;4.30;99.90
39021;DHT22;25188;51.958;5.842;2024-03-25T02:25:54;4.20;99.90
39021;DHT22;25188;51.958;5.842;2024-03-25T02:28:20;4.20;99.90
39021;DHT22;25188;51.958;5.842;2024-03-25T02:30:46;4.20;99.90
39021;DHT22;25188;51.958;5.842;2024-03-25T02:33:11;4.20;99.90
39021;DHT22;25188;51.958;5.842;2024-03-25T02:35:39;4.20;99.90
39021;DHT22;25188;51.958;5.842;2024-03-25T02:38:06;4.20;99.90
39021;DHT22;25188;51.958;5.842;2024-03-25T02:40:32;4.10;99.90
39021;DHT22;25188;51.958;5.842;2024-03-25T02:42:59;4.20;99.90
39021;DHT22;25188;51.958;5.842;2024-03-25T02:45:25;4.20;99.90
39021;DHT22;25188;51.958;5.842;2024-03-25T02:47:51;4.20;99.90
39021;DHT22;25188;51.958;5.842;2024-03-25T02:50:16;4.10;99.90
39021;DHT22;25188;51.958;5.842;2024-03-25T02:52:42;4.20;99.90
39021;DHT22;25188;51.958;5.842;2024-03-25T02:55:08;4.20;99.90
39021;DHT22;25188;51.958;5.842;2024-03-25T02:57:34;4.10;99.90
39021;DHT22;25188;51.958;5.842;2024-03-25T02:59:59;4.10;99.90
39021;DHT22;25188;51.958;5.842;2024-03-25T03:02:25;4.10;99.90
39021;DHT22;25188;51.958;5.842;2024-03-25T03:04:51;4.10;99.90
39021;DHT22;25188;51.958;5.842;2024-03-25T03:07:16;4.20;99.90
39021;DHT22;25188;51.958;5.842;2024-03-25T03:09:42;4.10;99.90
39021;DHT22;25188;51.958;5.842;2024-03-25T03:12:08;4.10;99.90
39021;DHT22;25188;51.958;5.842;2024-03-25T03:14:33;4.10;99.90
39021;DHT22;25188;51.958;5.842;2024-03-25T03:16:59;4.10;99.90
39021;DHT22;25188;51.958;5.842;2024-03-25T03:19:28;4.20;99.90
39021;DHT22;25188;51.958;5.842;2024-03-25T03:21:54;4.10;99.90
39021;DHT22;25188;51.958;5.842;2024-03-25T03:24:20;4.10;99.90
39021;DHT22;25188;51.958;5.842;2024-03-25T03:26:45;4.20;99.90
39021;DHT22;25188;51.958;5.842;2024-03-25T03:29:11;4.10;99.90
39021;DHT22;25188;51.958;5.842;2024-03-25T03:31:37;4.10;99.90
39021;DHT22;25188;51.958;5.842;2024-03-25T03:34:03;4.10;99.90
39021;DHT22;25188;51.958;5.842;2024-03-25T03:36:28;4.10;99.90
39021;DHT22;25188;51.958;5.842;2024-03-25T03:38:54;4.10;99.90
39021;DHT22;25188;51.958;5.842;2024-03-25T03:41:20;4.10;99.90
39021;DHT22;25188;51.958;5.842;2024-03-25T03:43:45;4.10;99.90
39021;DHT22;25188;51.958;5.842;2024-03-25T03:46:11;4.10;99.90
39021;DHT22;25188;51.958;5.842;2024-03-25T03:48:37;4.10;99.90
39021;DHT22;25188;51.958;5.842;2024-03-25T03:51:07;4.10;99.90
39021;DHT22;25188;51.958;5.842;2024-03-25T03:53:34;4.10;99.90
39021;DHT22;25188;51.958;5.842;2024-03-25T03:56:03;4.00;99.90
39021;DHT22;25188;51.958;5.842;2024-03-25T03:58:32;4.10;99.90
39021;DHT22;25188;51.958;5.842;2024-03-25T04:00:58;4.10;99.90
39021;DHT22;25188;51.958;5.842;2024-03-25T04:03:23;4.10;99.90
39021;DHT22;25188;51.958;5.842;2024-03-25T04:05:49;4.10;99.90
39021;DHT22;25188;51.958;5.842;2024-03-25T04:08:15;4.10;99.90
39021;DHT22;25188;51.958;5.842;2024-03-25T04:10:41;4.10;99.90
39021;DHT22;25188;51.958;5.842;2024-03-25T04:13:07;4.10;99.90
39021;DHT22;25188;51.958;5.842;2024-03-25T04:15:34;4.10;99.90
39021;DHT22;25188;51.958;5.842;2024-03-25T04:17:59;4.10;99.90
39021;DHT22;25188;51.958;5.842;2024-03-25T04:20:27;4.10;99.90
39021;DHT22;25188;51.958;5.842;2024-03-25T04:22:53;4.10;99.90
39021;DHT22;25188;51.958;5.842;2024-03-25T04:25:19;4.10;99.90
39021;DHT22;25188;51.958;5.842;2024-03-25T04:27:45;4.00;99.90
39021;DHT22;25188;51.958;5.842;2024-03-25T04:30:11;4.00;99.90
39021;DHT22;25188;51.958;5.842;2024-03-25T04:32:38;4.00;99.90
39021;DHT22;25188;51.958;5.842;2024-03-25T04:35:04;4.00;99.90
39021;DHT22;25188;51.958;5.842;2024-03-25T04:37:32;4.00;99.90
39021;DHT22;25188;51.958;5.842;2024-03-25T04:39:58;4.00;99.90
39021;DHT22;25188;51.958;5.842;2024-03-25T04:42:23;3.90;99.90
39021;DHT22;25188;51.958;5.842;2024-03-25T04:44:49;3.90;99.90
39021;DHT22;25188;51.958;5.842;2024-03-25T04:47:16;3.90;99.90
39021;DHT22;25188;51.958;5.842;2024-03-25T04:49:42;3.90;99.90
39021;DHT22;25188;51.958;5.842;2024-03-25T04:52:08;3.90;99.90
39021;DHT22;25188;51.958;5.842;2024-03-25T04:54:33;3.90;99.90
39021;DHT22;25188;51.958;5.842;2024-03-25T04:56:59;3.90;99.90
39021;DHT22;25188;51.958;5.842;2024-03-25T04:59:25;3.80;99.90
39021;DHT22;25188;51.958;5.842;2024-03-25T05:01:50;3.80;99.90
39021;DHT22;25188;51.958;5.842;2024-03-25T05:04:18;3.80;99.90
39021;DHT22;25188;51.958;5.842;2024-03-25T05:06:43;3.80;99.90
39021;DHT22;25188;51.958;5.842;2024-03-25T05:09:09;3.80;99.90
39021;DHT22;25188;51.958;5.842;2024-03-25T05:11:35;3.80;99.90
39021;DHT22;25188;51.958;5.842;2024-03-25T05:14:01;3.80;99.90
39021;DHT22;25188;51.958;5.842;2024-03-25T05:16:26;3.80;99.90
39021;DHT22;25188;51.958;5.842;2024-03-25T05:18:52;3.70;99.90
39021;DHT22;25188;51.958;5.842;2024-03-25T05:21:18;3.70;99.90
39021;DHT22;25188;51.958;5.842;2024-03-25T05:23:44;3.70;99.90
39021;DHT22;25188;51.958;5.842;2024-03-25T05:26:09;3.70;99.90
39021;DHT22;25188;51.958;5.842;2024-03-25T05:28:35;3.70;99.90
39021;DHT22;25188;51.958;5.842;2024-03-25T05:31:07;3.70;99.90
39021;DHT22;25188;51.958;5.842;2024-03-25T05:33:33;3.70;99.90
39021;DHT22;25188;51.958;5.842;2024-03-25T05:35:59;3.70;99.90
39021;DHT22;25188;51.958;5.842;2024-03-25T05:38:26;3.70;99.90
39021;DHT22;25188;51.958;5.842;2024-03-25T05:40:52;3.70;99.90
39021;DHT22;25188;51.958;5.842;2024-03-25T05:43:17;3.70;99.90
39021;DHT22;25188;51.958;5.842;2024-03-25T05:45:56;3.70;99.90
39021;DHT22;25188;51.958;5.842;2024-03-25T05:48:23;3.70;99.90
39021;DHT22;25188;51.958;5.842;2024-03-25T05:51:04;3.70;99.90
39021;DHT22;25188;51.958;5.842;2024-03-25T05:53:40;3.70;99.90
39021;DHT22;25188;51.958;5.842;2024-03-25T05:56:06;3.70;99.90
39021;DHT22;25188;51.958;5.842;2024-03-25T05:58:31;3.70;99.90
39021;DHT22;25188;51.958;5.842;2024-03-25T06:00:57;3.90;99.90
39021;DHT22;25188;51.958;5.842;2024-03-25T06:03:22;3.70;99.90
39021;DHT22;25188;51.958;5.842;2024-03-25T06:05:48;3.70;99.90
39021;DHT22;25188;51.958;5.842;2024-03-25T06:08:15;3.70;99.90
39021;DHT22;25188;51.958;5.842;2024-03-25T06:10:49;3.70;99.90
39021;DHT22;25188;51.958;5.842;2024-03-25T06:13:15;3.90;99.90
39021;DHT22;25188;51.958;5.842;2024-03-25T06:15:40;3.80;99.90
39021;DHT22;25188;51.958;5.842;2024-03-25T06:18:06;3.90;99.90
39021;DHT22;25188;51.958;5.842;2024-03-25T06:20:32;3.80;99.90
39021;DHT22;25188;51.958;5.842;2024-03-25T06:22:58;3.90;99.90
39021;DHT22;25188;51.958;5.842;2024-03-25T06:25:23;3.90;99.90
39021;DHT22;25188;51.958;5.842;2024-03-25T06:27:49;4.00;99.90
39021;DHT22;25188;51.958;5.842;2024-03-25T06:30:14;4.00;99.90
39021;DHT22;25188;51.958;5.842;2024-03-25T06:33:00;4.00;99.90
39021;DHT22;25188;51.958;5.842;2024-03-25T06:35:45;4.00;99.90
39021;DHT22;25188;51.958;5.842;2024-03-25T06:38:11;4.10;99.90
39021;DHT22;25188;51.958;5.842;2024-03-25T06:40:37;4.10;99.90
39021;DHT22;25188;51.958;5.842;2024-03-25T06:43:04;4.10;99.90
39021;DHT22;25188;51.958;5.842;2024-03-25T06:45:29;4.20;99.90
39021;DHT22;25188;51.958;5.842;2024-03-25T06:47:55;4.20;99.90
39021;DHT22;25188;51.958;5.842;2024-03-25T06:50:21;4.30;99.90
39021;DHT22;25188;51.958;5.842;2024-03-25T06:52:48;4.40;99.90
39021;DHT22;25188;51.958;5.842;2024-03-25T06:55:14;4.30;99.90
39021;DHT22;25188;51.958;5.842;2024-03-25T06:57:40;4.40;99.90
39021;DHT22;25188;51.958;5.842;2024-03-25T07:00:06;4.50;99.90
39021;DHT22;25188;51.958;5.842;2024-03-25T07:02:36;4.50;99.90
39021;DHT22;25188;51.958;5.842;2024-03-25T07:05:02;4.60;99.90
39021;DHT22;25188;51.958;5.842;2024-03-25T07:07:27;4.60;99.90
39021;DHT22;25188;51.958;5.842;2024-03-25T07:09:53;4.60;99.90
39021;DHT22;25188;51.958;5.842;2024-03-25T07:12:19;4.70;99.90
39021;DHT22;25188;51.958;5.842;2024-03-25T07:14:45;4.70;99.90
39021;DHT22;25188;51.958;5.842;2024-03-25T07:17:11;4.70;99.90
39021;DHT22;25188;51.958;5.842;2024-03-25T07:19:36;4.80;99.90
39021;DHT22;25188;51.958;5.842;2024-03-25T07:22:02;4.80;99.90
39021;DHT22;25188;51.958;5.842;2024-03-25T07:24:28;4.90;99.90
39021;DHT22;25188;51.958;5.842;2024-03-25T07:26:53;4.90;99.90
39021;DHT22;25188;51.958;5.842;2024-03-25T07:29:19;5.00;99.90
39021;DHT22;25188;51.958;5.842;2024-03-25T07:31:44;5.00;99.90
39021;DHT22;25188;51.958;5.842;2024-03-25T07:34:11;5.10;99.90
39021;DHT22;25188;51.958;5.842;2024-03-25T07:36:37;5.10;99.90
39021;DHT22;25188;51.958;5.842;2024-03-25T07:39:04;5.30;99.90
39021;DHT22;25188;51.958;5.842;2024-03-25T07:41:31;5.20;99.90
39021;DHT22;25188;51.958;5.842;2024-03-25T07:43:57;5.30;99.90
39021;DHT22;25188;51.958;5.842;2024-03-25T07:46:22;5.30;99.90
39021;DHT22;25188;51.958;5.842;2024-03-25T07:48:48;5.30;99.90
39021;DHT22;25188;51.958;5.842;2024-03-25T07:51:14;5.40;99.90
39021;DHT22;25188;51.958;5.842;2024-03-25T07:53:39;5.40;99.90
39021;DHT22;25188;51.958;5.842;2024-03-25T07:56:05;5.50;99.90
39021;DHT22;25188;51.958;5.842;2024-03-25T07:58:31;5.50;99.90
39021;DHT22;25188;51.958;5.842;2024-03-25T08:00:56;5.60;99.90
39021;DHT22;25188;51.958;5.842;2024-03-25T08:03:22;5.70;99.90
39021;DHT22;25188;51.958;5.842;2024-03-25T08:05:50;5.70;99.90
39021;DHT22;25188;51.958;5.842;2024-03-25T08:08:16;5.80;99.90
39021;DHT22;25188;51.958;5.842;2024-03-25T08:10:42;5.90;99.90
39021;DHT22;25188;51.958;5.842;2024-03-25T08:13:07;5.90;99.90
39021;DHT22;25188;51.958;5.842;2024-03-25T08:15:33;6.10;99.90
39021;DHT22;25188;51.958;5.842;2024-03-25T08:17:58;6.10;99.90
39021;DHT22;25188;51.958;5.842;2024-03-25T08:20:24;6.20;99.90
39021;DHT22;25188;51.958;5.842;2024-03-25T08:22:50;6.30;99.90
39021;DHT22;25188;51.958;5.842;2024-03-25T08:25:15;6.40;99.90
39021;DHT22;25188;51.958;5.842;2024-03-25T08:27:41;6.40;99.90
39021;DHT22;25188;51.958;5.842;2024-03-25T08:30:07;6.50;99.90
39021;DHT22;25188;51.958;5.842;2024-03-25T08:32:33;6.60;99.90
39021;DHT22;25188;51.958;5.842;2024-03-25T08:34:59;6.70;99.90
39021;DHT22;25188;51.958;5.842;2024-03-25T08:37:24;6.80;99.90
39021;DHT22;25188;51.958;5.842;2024-03-25T08:39:50;6.80;99.90
39021;DHT22;25188;51.958;5.842;2024-03-25T08:42:16;6.90;99.90
39021;DHT22;25188;51.958;5.842;2024-03-25T08:44:41;7.00;99.90
39021;DHT22;25188;51.958;5.842;2024-03-25T08:47:07;7.10;99.90
39021;DHT22;25188;51.958;5.842;2024-03-25T08:49:32;7.20;99.90
39021;DHT22;25188;51.958;5.842;2024-03-25T08:52:01;7.30;99.90
39021;DHT22;25188;51.958;5.842;2024-03-25T08:54:27;7.40;99.90
39021;DHT22;25188;51.958;5.842;2024-03-25T08:56:53;7.40;99.90
39021;DHT22;25188;51.958;5.842;2024-03-25T08:59:19;7.60;99.90
39021;DHT22;25188;51.958;5.842;2024-03-25T09:01:44;7.70;99.90
39021;DHT22;25188;51.958;5.842;2024-03-25T09:04:10;7.80;99.90
39021;DHT22;25188;51.958;5.842;2024-03-25T09:06:35;7.90;99.90
39021;DHT22;25188;51.958;5.842;2024-03-25T09:09:02;8.00;99.90
39021;DHT22;25188;51.958;5.842;2024-03-25T09:11:46;8.10;99.90
39021;DHT22;25188;51.958;5.842;2024-03-25T09:14:12;8.30;99.90
39021;DHT22;25188;51.958;5.842;2024-03-25T09:16:38;8.40;99.90
39021;DHT22;25188;51.958;5.842;2024-03-25T09:19:04;8.40;99.90
39021;DHT22;25188;51.958;5.842;2024-03-25T09:21:29;8.50;99.90
39021;DHT22;25188;51.958;5.842;2024-03-25T09:23:55;8.60;99.90
39021;DHT22;25188;51.958;5.842;2024-03-25T09:26:23;8.70;99.90
39021;DHT22;25188;51.958;5.842;2024-03-25T09:28:49;8.80;99.90
39021;DHT22;25188;51.958;5.842;2024-03-25T09:31:15;8.90;99.90
39021;DHT22;25188;51.958;5.842;2024-03-25T09:33:40;8.90;99.90
39021;DHT22;25188;51.958;5.842;2024-03-25T09:36:06;9.00;99.90
39021;DHT22;25188;51.958;5.842;2024-03-25T09:38:32;9.10;99.90
39021;DHT22;25188;51.958;5.842;2024-03-25T09:40:58;9.30;99.90
39021;DHT22;25188;51.958;5.842;2024-03-25T09:43:27;9.50;99.90
39021;DHT22;25188;51.958;5.842;2024-03-25T09:45:57;9.60;99.90
39021;DHT22;25188;51.958;5.842;2024-03-25T09:48:24;9.70;99.90
39021;DHT22;25188;51.958;5.842;2024-03-25T09:50:50;9.90;99.90
39021;DHT22;25188;51.958;5.842;2024-03-25T09:53:17;10.00;99.90
39021;DHT22;25188;51.958;5.842;2024-03-25T09:55:46;10.10;99.90
39021;DHT22;25188;51.958;5.842;2024-03-25T09:58:15;10.20;99.90
39021;DHT22;25188;51.958;5.842;2024-03-25T10:00:43;10.40;99.90
39021;DHT22;25188;51.958;5.842;2024-03-25T10:03:09;10.50;99.90
39021;DHT22;25188;51.958;5.842;2024-03-25T10:05:34;10.70;99.90
39021;DHT22;25188;51.958;5.842;2024-03-25T10:08:00;10.80;99.90
39021;DHT22;25188;51.958;5.842;2024-03-25T10:10:26;10.90;99.90
39021;DHT22;25188;51.958;5.842;2024-03-25T10:13:03;11.10;99.90
39021;DHT22;25188;51.958;5.842;2024-03-25T10:15:29;11.20;99.90
39021;DHT22;25188;51.958;5.842;2024-03-25T10:17:55;11.50;99.90
39021;DHT22;25188;51.958;5.842;2024-03-25T10:20:20;12.00;99.90
39021;DHT22;25188;51.958;5.842;2024-03-25T10:22:47;12.50;99.90
39021;DHT22;25188;51.958;5.842;2024-03-25T10:25:27;13.10;99.90
39021;DHT22;25188;51.958;5.842;2024-03-25T10:28:00;13.80;99.90
39021;DHT22;25188;51.958;5.842;2024-03-25T10:30:27;14.50;99.90
39021;DHT22;25188;51.958;5.842;2024-03-25T10:32:59;15.10;99.90
39021;DHT22;25188;51.958;5.842;2024-03-25T10:35:29;15.30;99.90
39021;DHT22;25188;51.958;5.842;2024-03-25T10:38:00;15.50;99.70
39021;DHT22;25188;51.958;5.842;2024-03-25T10:40:31;15.70;97.00
39021;DHT22;25188;51.958;5.842;2024-03-25T10:43:17;16.00;95.60
39021;DHT22;25188;51.958;5.842;2024-03-25T10:45:47;16.50;94.10
39021;DHT22;25188;51.958;5.842;2024-03-25T10:48:28;16.80;94.20
39021;DHT22;25188;51.958;5.842;2024-03-25T10:50:56;17.10;92.30
39021;DHT22;25188;51.958;5.842;2024-03-25T10:53:22;17.40;91.70
39021;DHT22;25188;51.958;5.842;2024-03-25T10:55:54;17.70;91.10
39021;DHT22;25188;51.958;5.842;2024-03-25T10:58:22;18.20;89.50
39021;DHT22;25188;51.958;5.842;2024-03-25T11:00:52;18.50;85.20
39021;DHT22;25188;51.958;5.842;2024-03-25T11:03:22;18.60;80.70
39021;DHT22;25188;51.958;5.842;2024-03-25T11:05:48;18.50;76.50
39021;DHT22;25188;51.958;5.842;2024-03-25T11:08:16;18.40;75.50
39021;DHT22;25188;51.958;5.842;2024-03-25T11:10:47;18.50;75.10
39021;DHT22;25188;51.958;5.842;2024-03-25T11:13:13;18.40;73.00
39021;DHT22;25188;51.958;5.842;2024-03-25T11:15:44;18.20;72.00
39021;DHT22;25188;51.958;5.842;2024-03-25T11:18:17;18.00;70.00
39021;DHT22;25188;51.958;5.842;2024-03-25T11:20:44;17.80;68.40
39021;DHT22;25188;51.958;5.842;2024-03-25T11:25:36;17.30;66.50
39021;DHT22;25188;51.958;5.842;2024-03-25T11:28:03;17.20;67.90
39021;DHT22;25188;51.958;5.842;2024-03-25T11:30:29;17.30;67.90
39021;DHT22;25188;51.958;5.842;2024-03-25T11:32:57;17.40;68.00
39021;DHT22;25188;51.958;5.842;2024-03-25T11:35:24;17.80;68.40
39021;DHT22;25188;51.958;5.842;2024-03-25T11:37:50;18.20;68.20
39021;DHT22;25188;51.958;5.842;2024-03-25T11:40:17;18.70;68.60
39021;DHT22;25188;51.958;5.842;2024-03-25T11:42:44;19.20;68.30
39021;DHT22;25188;51.958;5.842;2024-03-25T11:45:17;19.80;67.80
39021;DHT22;25188;51.958;5.842;2024-03-25T11:47:46;20.40;63.30
39021;DHT22;25188;51.958;5.842;2024-03-25T11:50:14;21.00;61.30
39021;DHT22;25188;51.958;5.842;2024-03-25T11:52:40;21.40;61.10
39021;DHT22;25188;51.958;5.842;2024-03-25T11:55:06;21.80;60.10
39021;DHT22;25188;51.958;5.842;2024-03-25T11:57:37;22.30;59.90
39021;DHT22;25188;51.958;5.842;2024-03-25T12:00:04;22.60;56.80
39021;DHT22;25188;51.958;5.842;2024-03-25T12:02:31;22.40;56.20
39021;DHT22;25188;51.958;5.842;2024-03-25T12:04:57;22.30;56.60
39021;DHT22;25188;51.958;5.842;2024-03-25T12:07:23;22.60;56.30
39021;DHT22;25188;51.958;5.842;2024-03-25T12:09:48;23.10;56.40
39021;DHT22;25188;51.958;5.842;2024-03-25T12:12:33;23.70;55.50
39021;DHT22;25188;51.958;5.842;2024-03-25T12:15:00;24.20;52.50
39021;DHT22;25188;51.958;5.842;2024-03-25T12:17:28;24.40;51.70
39021;DHT22;25188;51.958;5.842;2024-03-25T12:20:06;24.70;51.00
39021;DHT22;25188;51.958;5.842;2024-03-25T12:22:38;25.00;49.20
39021;DHT22;25188;51.958;5.842;2024-03-25T12:25:08;25.20;48.40
39021;DHT22;25188;51.958;5.842;2024-03-25T12:27:35;25.40;47.60
39021;DHT22;25188;51.958;5.842;2024-03-25T12:32:46;26.00;47.50
39021;DHT22;25188;51.958;5.842;2024-03-25T12:35:12;25.90;45.60
39021;DHT22;25188;51.958;5.842;2024-03-25T12:37:39;25.60;43.00
39021;DHT22;25188;51.958;5.842;2024-03-25T12:40:07;25.50;45.40
39021;DHT22;25188;51.958;5.842;2024-03-25T12:42:34;25.40;44.70
39021;DHT22;25188;51.958;5.842;2024-03-25T12:45:00;25.00;44.80
39021;DHT22;25188;51.958;5.842;2024-03-25T12:47:26;24.60;43.70
39021;DHT22;25188;51.958;5.842;2024-03-25T12:49:52;23.90;44.20
39021;DHT22;25188;51.958;5.842;2024-03-25T12:52:18;23.30;45.10
39021;DHT22;25188;51.958;5.842;2024-03-25T12:54:43;23.00;45.50
39021;DHT22;25188;51.958;5.842;2024-03-25T12:57:10;23.10;45.70
39021;DHT22;25188;51.958;5.842;2024-03-25T12:59:36;23.50;46.00
39021;DHT22;25188;51.958;5.842;2024-03-25T13:02:02;23.90;45.00
39021;DHT22;25188;51.958;5.842;2024-03-25T13:04:28;24.00;45.30
39021;DHT22;25188;51.958;5.842;2024-03-25T13:06:53;24.20;44.40
39021;DHT22;25188;51.958;5.842;2024-03-25T13:09:19;24.60;43.80
39021;DHT22;25188;51.958;5.842;2024-03-25T13:11:45;24.60;43.10
39021;DHT22;25188;51.958;5.842;2024-03-25T13:14:12;24.20;42.90
39021;DHT22;25188;51.958;5.842;2024-03-25T13:16:38;23.60;42.20
39021;DHT22;25188;51.958;5.842;2024-03-25T13:19:04;23.30;42.30
39021;DHT22;25188;51.958;5.842;2024-03-25T13:21:30;23.40;42.80
39021;DHT22;25188;51.958;5.842;2024-03-25T13:23:56;23.90;42.90
39021;DHT22;25188;51.958;5.842;2024-03-25T13:26:22;24.30;42.20
39021;DHT22;25188;51.958;5.842;2024-03-25T13:28:47;24.70;42.10
39021;DHT22;25188;51.958;5.842;2024-03-25T13:31:13;24.60;41.30
39021;DHT22;25188;51.958;5.842;2024-03-25T13:33:39;24.00;41.40
39021;DHT22;25188;51.958;5.842;2024-03-25T13:36:06;23.80;42.20
39021;DHT22;25188;51.958;5.842;2024-03-25T13:38:32;23.60;41.90
39021;DHT22;25188;51.958;5.842;2024-03-25T13:40:59;23.20;41.70
39021;DHT22;25188;51.958;5.842;2024-03-25T13:43:26;23.00;42.20
39021;DHT22;25188;51.958;5.842;2024-03-25T13:45:51;23.30;42.80
39021;DHT22;25188;51.958;5.842;2024-03-25T13:48:17;23.80;41.70
39021;DHT22;25188;51.958;5.842;2024-03-25T13:50:43;24.20;41.00
39021;DHT22;25188;51.958;5.842;2024-03-25T13:53:09;24.70;41.00
39021;DHT22;25188;51.958;5.842;2024-03-25T13:55:35;25.10;41.00
39021;DHT22;25188;51.958;5.842;2024-03-25T13:58:01;25.40;40.40
39021;DHT22;25188;51.958;5.842;2024-03-25T14:00:27;25.80;40.50
39021;DHT22;25188;51.958;5.842;2024-03-25T14:02:54;26.20;39.70
39021;DHT22;25188;51.958;5.842;2024-03-25T14:05:21;26.10;39.00
39021;DHT22;25188;51.958;5.842;2024-03-25T14:07:46;26.20;39.60
39021;DHT22;25188;51.958;5.842;2024-03-25T14:10:12;26.60;39.20
39021;DHT22;25188;51.958;5.842;2024-03-25T14:12:38;26.80;38.10
39021;DHT22;25188;51.958;5.842;2024-03-25T14:15:04;26.50;37.90
39021;DHT22;25188;51.958;5.842;2024-03-25T14:17:30;26.60;38.20
39021;DHT22;25188;51.958;5.842;2024-03-25T14:19:56;26.90;38.20
39021;DHT22;25188;51.958;5.842;2024-03-25T14:22:22;27.20;37.60
39021;DHT22;25188;51.958;5.842;2024-03-25T14:24:48;27.60;37.70
39021;DHT22;25188;51.958;5.842;2024-03-25T14:27:14;27.90;36.60
39021;DHT22;25188;51.958;5.842;2024-03-25T14:29:40;28.00;36.10
39021;DHT22;25188;51.958;5.842;2024-03-25T14:32:06;28.10;36.30
39021;DHT22;25188;51.958;5.842;2024-03-25T14:34:32;28.30;36.70
39021;DHT22;25188;51.958;5.842;2024-03-25T14:36:58;28.40;35.90
39021;DHT22;25188;51.958;5.842;2024-03-25T14:39:26;28.50;35.30
39021;DHT22;25188;51.958;5.842;2024-03-25T14:41:52;28.60;35.20
39021;DHT22;25188;51.958;5.842;2024-03-25T14:44:18;28.60;35.00
39021;DHT22;25188;51.958;5.842;2024-03-25T14:46:43;28.70;35.30
39021;DHT22;25188;51.958;5.842;2024-03-25T14:49:09;28.70;34.70
39021;DHT22;25188;51.958;5.842;2024-03-25T14:51:35;28.70;34.60
39021;DHT22;25188;51.958;5.842;2024-03-25T14:54:01;28.80;34.30
39021;DHT22;25188;51.958;5.842;2024-03-25T14:56:27;28.80;34.40
39021;DHT22;25188;51.958;5.842;2024-03-25T14:58:56;28.70;34.50
39021;DHT22;25188;51.958;5.842;2024-03-25T15:01:21;28.40;34.00
39021;DHT22;25188;51.958;5.842;2024-03-25T15:03:47;28.00;34.30
39021;DHT22;25188;51.958;5.842;2024-03-25T15:06:13;27.70;34.40
39021;DHT22;25188;51.958;5.842;2024-03-25T15:08:39;27.50;34.40
39021;DHT22;25188;51.958;5.842;2024-03-25T15:11:05;27.10;34.00
39021;DHT22;25188;51.958;5.842;2024-03-25T15:13:31;26.30;34.40
39021;DHT22;25188;51.958;5.842;2024-03-25T15:15:57;25.60;35.20
39021;DHT22;25188;51.958;5.842;2024-03-25T15:18:24;25.20;35.80
39021;DHT22;25188;51.958;5.842;2024-03-25T15:21:00;24.90;35.80
39021;DHT22;25188;51.958;5.842;2024-03-25T15:23:26;24.30;36.00
39021;DHT22;25188;51.958;5.842;2024-03-25T15:25:52;23.60;36.80
39021;DHT22;25188;51.958;5.842;2024-03-25T15:28:17;23.50;37.60
39021;DHT22;25188;51.958;5.842;2024-03-25T15:30:43;23.50;37.60
39021;DHT22;25188;51.958;5.842;2024-03-25T15:33:09;23.30;37.30
39021;DHT22;25188;51.958;5.842;2024-03-25T15:35:34;22.90;37.50
39021;DHT22;25188;51.958;5.842;2024-03-25T15:38:00;22.70;38.30
39021;DHT22;25188;51.958;5.842;2024-03-25T15:40:25;22.90;38.40
39021;DHT22;25188;51.958;5.842;2024-03-25T15:42:51;23.00;38.40